createdAt,value
2023-02-14T00:06:28.442Z,88
2023-02-14T00:16:30.290Z,88
2023-02-14T00:26:32.187Z,88
2023-02-14T00:36:33.858Z,88
2023-02-14T00:46:34.964Z,88
2023-02-14T00:56:36.536Z,88
2023-02-14T01:16:40.364Z,88
2023-02-14T01:26:42.356Z,88
2023-02-14T01:36:43.637Z,88
2023-02-14T01:46:45.382Z,88
2023-02-14T01:56:46.457Z,89
2023-02-14T02:06:48.345Z,89
2023-02-14T02:16:49.559Z,89
2023-02-14T02:26:50.968Z,90
2023-02-14T02:46:54.189Z,89
2023-02-14T02:56:55.913Z,89
2023-02-14T03:06:57.697Z,89
2023-02-14T03:16:58.935Z,89
2023-02-14T03:37:02.547Z,89
2023-02-14T03:47:03.848Z,89
2023-02-14T03:57:05.529Z,90
2023-02-14T04:07:07.200Z,90
2023-02-14T04:17:08.666Z,91
2023-02-14T04:27:10.603Z,90
2023-02-14T04:37:11.558Z,90
2023-02-14T04:47:13.111Z,90
2023-02-14T05:07:16.105Z,91
2023-02-14T05:17:17.791Z,91
2023-02-14T05:27:19.742Z,90
2023-02-14T05:37:21.400Z,90
2023-02-14T05:47:23.204Z,90
2023-02-14T05:57:25.212Z,90
2023-02-14T06:07:26.645Z,90
2023-02-14T06:17:28.110Z,90
2023-02-14T06:37:30.409Z,91
2023-02-14T06:47:32.804Z,91
2023-02-14T06:57:33.280Z,90
2023-02-14T07:07:35.107Z,90
2023-02-14T07:17:36.386Z,90
2023-02-14T07:27:37.657Z,90
2023-02-14T07:37:38.860Z,90
2023-02-14T07:47:39.908Z,90
2023-02-14T07:57:41.357Z,90
2023-02-14T08:07:43.104Z,90
2023-02-14T08:17:44.834Z,90
2023-02-14T08:27:46.228Z,90
2023-02-14T08:37:48.129Z,88
2023-02-14T08:47:49.514Z,87
2023-02-14T08:57:51.164Z,85
2023-02-14T09:27:55.380Z,83
2023-02-14T09:47:58.074Z,81
2023-02-14T09:57:59.904Z,79
2023-02-14T10:18:02.809Z,75
2023-02-14T10:40:43.710Z,72
2023-02-14T10:48:15.334Z,72
2023-02-14T10:58:17.087Z,71
2023-02-14T11:08:18.216Z,68
2023-02-14T11:18:20.116Z,65
2023-02-14T11:28:21.433Z,63
2023-02-14T11:38:22.615Z,63
2023-02-14T11:48:35.110Z,62
2023-02-14T11:58:25.133Z,59
2023-02-14T12:08:26.799Z,60
2023-02-14T12:18:28.551Z,61
2023-02-14T12:28:30.069Z,59
2023-02-14T12:38:32.006Z,59
2023-02-14T12:48:33.583Z,56
2023-02-14T12:58:34.968Z,59
2023-02-14T13:08:36.961Z,58
2023-02-14T13:18:38.095Z,56
2023-02-14T13:28:40.057Z,57
2023-02-14T13:38:41.773Z,56
2023-02-14T13:48:43.326Z,58
2023-02-14T13:58:44.437Z,56
2023-02-14T14:08:45.616Z,55
2023-02-14T14:18:46.936Z,55
2023-02-14T14:28:48.066Z,58
2023-02-14T14:38:49.392Z,55
2023-02-14T14:48:50.522Z,55
2023-02-14T14:58:52.138Z,55
2023-02-14T15:08:54.002Z,55
2023-02-14T15:18:55.579Z,54
2023-02-14T15:28:56.707Z,52
2023-02-14T15:49:00.213Z,51
2023-02-14T15:59:01.703Z,51
2023-02-14T16:09:03.093Z,54
2023-02-14T16:19:04.659Z,57
2023-02-14T16:29:06.294Z,59
2023-02-14T16:39:07.943Z,61
2023-02-14T16:49:09.576Z,62
2023-02-14T16:59:11.436Z,63
2023-02-14T17:09:12.833Z,65
2023-02-14T17:19:15.639Z,66
2023-02-14T17:29:16.591Z,67
2023-02-14T17:39:17.659Z,69
2023-02-14T17:49:19.361Z,69
2023-02-14T17:59:21.095Z,71
2023-02-14T18:09:22.930Z,72
2023-02-14T18:19:24.557Z,73
2023-02-14T18:29:26.019Z,74
2023-02-14T18:39:27.161Z,75
2023-02-14T18:49:28.852Z,75
2023-02-14T18:59:30.051Z,76
2023-02-14T19:09:31.656Z,78
2023-02-14T19:19:33.358Z,77
2023-02-14T19:29:34.834Z,80
2023-02-14T19:49:38.292Z,81
2023-02-14T19:59:40.104Z,80
2023-02-14T20:09:41.984Z,80
2023-02-14T20:19:43.256Z,79
2023-02-14T20:29:45.250Z,80
2023-02-14T20:39:46.622Z,80
2023-02-14T20:49:48.347Z,84
2023-02-14T20:59:49.842Z,86
2023-02-14T21:09:51.602Z,84
2023-02-14T21:19:53.028Z,84
2023-02-14T21:29:54.352Z,85
2023-02-14T21:39:55.668Z,87
2023-02-14T21:49:57.433Z,87
2023-02-14T21:59:58.831Z,86
2023-02-14T22:10:00.204Z,88
2023-02-14T22:20:02.250Z,85
2023-02-14T22:30:03.431Z,84
2023-02-14T22:40:04.518Z,85
2023-02-14T22:50:05.950Z,87
2023-02-14T23:00:07.118Z,88
2023-02-14T23:10:08.490Z,86
2023-02-14T23:20:09.650Z,86
2023-02-14T23:30:10.928Z,86
2023-02-14T23:40:12.555Z,86
2023-02-14T23:50:14.001Z,87
